Terminal Aerodrome Forecast
Issued by NWS

Home | Current Version | Previous Version | Text Only | Print | Product List | Glossary On
Versions: 1 2 3 4 5 6 7 8 9 10 11 12 13 14 15
000
FTUS45 KFGZ 261700
TAFSEZ
TAF
KSEZ 261736Z 2618/2718 13006KT P6SM SCT140 BKN200
     FM270300 13005KT 6SM -SHRA BKN035 OVC060
     FM270700 VRB05KT 5SM -SHRA BR OVC028=

USA.gov is the U.S. government's official web portal to all federal, state and local government web resources and services.